Time;durP1;ratioP1;P1;durP2;ratioP2;P2;SDS_P1;SDS_P2;PMS_P1;PMS_P2;Temp;Humidity;BMP_temperature;BMP_pressure;BME280_temperature;BME280_humidity;BME280_pressure;Samples;Min_cycle;Max_cycle;Signal;HPM_P1;HPM_P2
2022/07/30 00:01:05;;;;;;;5.55;3.55;;;17.40;99.90;;;;;;5040205;28;20033;-71
2022/07/30 00:03:32;;;;;;;5.90;3.30;;;17.40;99.90;;;;;;5032691;28;20348;-72
2022/07/30 00:05:58;;;;;;;6.47;3.40;;;17.30;99.90;;;;;;5034279;28;20119;-71
2022/07/30 00:08:24;;;;;;;6.15;3.30;;;17.30;99.90;;;;;;5036486;28;20049;-71
2022/07/30 00:10:50;;;;;;;6.35;3.15;;;17.30;99.90;;;;;;5037502;28;20094;-71
2022/07/30 00:13:17;;;;;;;4.55;3.25;;;17.20;99.90;;;;;;5034762;28;20037;-71
2022/07/30 00:15:42;;;;;;;7.47;3.95;;;17.20;99.90;;;;;;5042363;28;20037;-71
2022/07/30 00:18:08;;;;;;;4.75;3.38;;;17.20;99.90;;;;;;5040160;28;20122;-72
2022/07/30 00:20:34;;;;;;;7.78;3.85;;;17.20;99.90;;;;;;5041888;28;20400;-72
2022/07/30 00:23:04;;;;;;;9.70;3.83;;;17.20;99.90;;;;;;5034843;28;20423;-72
2022/07/30 00:25:30;;;;;;;5.38;3.30;;;17.20;99.90;;;;;;5044183;28;20113;-71
2022/07/30 00:27:56;;;;;;;8.57;3.95;;;17.10;99.90;;;;;;5036624;28;20041;-71
2022/07/30 00:30:22;;;;;;;6.88;3.78;;;17.20;99.90;;;;;;5043126;28;20056;-72
2022/07/30 00:32:48;;;;;;;5.45;3.40;;;17.10;99.90;;;;;;5041092;28;20041;-71
2022/07/30 00:35:14;;;;;;;8.07;3.97;;;17.00;99.90;;;;;;5040477;28;20160;-71
2022/07/30 00:37:39;;;;;;;6.35;3.35;;;17.00;99.90;;;;;;5047480;28;20068;-71
2022/07/30 00:40:07;;;;;;;6.15;3.65;;;17.00;99.90;;;;;;5049034;28;20640;-71
2022/07/30 00:42:42;;;;;;;7.97;3.70;;;17.00;99.90;;;;;;5040603;28;20045;-71
2022/07/30 00:45:08;;;;;;;8.80;4.13;;;16.90;99.90;;;;;;5039238;28;20045;-71
2022/07/30 00:47:35;;;;;;;5.90;3.38;;;16.90;99.90;;;;;;5023229;28;20367;-71
2022/07/30 00:50:03;;;;;;;5.40;3.30;;;16.90;99.90;;;;;;5036831;28;20088;-71
2022/07/30 00:52:30;;;;;;;5.03;3.47;;;16.80;99.90;;;;;;5032851;28;20394;-71
2022/07/30 00:54:56;;;;;;;8.55;3.40;;;16.80;99.90;;;;;;5037452;28;20311;-71
2022/07/30 00:57:22;;;;;;;8.60;3.60;;;16.80;99.90;;;;;;5036961;28;20386;-72
2022/07/30 00:59:48;;;;;;;5.82;3.10;;;16.80;99.90;;;;;;5046269;28;20037;-72
2022/07/30 01:02:16;;;;;;;5.53;3.42;;;16.80;99.90;;;;;;5044888;28;20029;-72
2022/07/30 01:04:42;;;;;;;7.20;3.60;;;16.70;99.90;;;;;;5047396;28;20055;-71
2022/07/30 01:07:07;;;;;;;7.43;3.83;;;16.70;99.90;;;;;;5049400;28;20063;-71
2022/07/30 01:09:33;;;;;;;7.53;3.70;;;16.60;99.90;;;;;;5043831;28;20047;-71
2022/07/30 01:11:59;;;;;;;6.90;3.92;;;16.60;99.90;;;;;;5036350;28;20056;-71
2022/07/30 01:14:27;;;;;;;6.97;3.53;;;16.60;99.90;;;;;;5045106;28;20044;-72
2022/07/30 01:16:53;;;;;;;6.63;3.53;;;16.50;99.90;;;;;;5042029;28;20128;-71
2022/07/30 01:22:41;;;;;;;6.20;3.40;;;16.50;99.90;;;;;;5037547;28;20123;-71
2022/07/30 01:25:58;;;;;;;5.53;2.80;;;16.50;99.90;;;;;;5040246;28;20049;-70
2022/07/30 01:28:29;;;;;;;6.43;3.03;;;16.50;99.90;;;;;;5015438;28;20057;-71
2022/07/30 01:30:56;;;;;;;8.10;3.25;;;16.50;99.90;;;;;;5039712;28;20038;-71
2022/07/30 01:33:24;;;;;;;5.47;3.22;;;16.50;99.90;;;;;;5033167;28;20132;-71
2022/07/30 01:35:51;;;;;;;5.18;3.40;;;16.40;99.90;;;;;;5040331;28;20060;-71
2022/07/30 01:38:21;;;;;;;6.53;3.70;;;16.40;99.90;;;;;;5043928;28;20098;-71
2022/07/30 01:40:49;;;;;;;5.60;3.75;;;16.40;99.90;;;;;;5040241;28;20527;-71
2022/07/30 01:43:16;;;;;;;5.85;3.35;;;16.30;99.90;;;;;;5041913;28;20416;-71
2022/07/30 01:45:47;;;;;;;6.05;3.30;;;16.30;99.90;;;;;;5033829;28;20525;-71
2022/07/30 01:48:14;;;;;;;6.80;3.25;;;16.20;99.90;;;;;;5044258;28;20044;-71
2022/07/30 01:50:49;;;;;;;5.55;3.70;;;16.30;99.90;;;;;;5039943;28;20052;-71
2022/07/30 01:53:18;;;;;;;5.75;3.58;;;16.30;99.90;;;;;;5042334;28;20041;-71
2022/07/30 01:55:45;;;;;;;7.90;3.40;;;16.20;99.90;;;;;;5043882;28;20049;-71
2022/07/30 01:58:13;;;;;;;6.30;3.60;;;16.20;99.90;;;;;;5035535;28;20037;-71
2022/07/30 02:00:42;;;;;;;6.50;3.53;;;16.20;99.90;;;;;;5042710;28;20032;-71
2022/07/30 02:03:09;;;;;;;5.10;3.53;;;16.20;99.90;;;;;;5039231;28;20095;-71
2022/07/30 02:05:37;;;;;;;6.57;4.07;;;16.30;99.90;;;;;;5040050;28;20094;-70
2022/07/30 02:08:20;;;;;;;4.97;3.65;;;16.30;99.90;;;;;;5042101;28;20088;-71
2022/07/30 02:11:13;;;;;;;4.60;3.30;;;16.30;99.90;;;;;;5046420;28;20096;-71
2022/07/30 02:13:46;;;;;;;6.30;3.78;;;16.30;99.90;;;;;;5046914;28;20131;-71
2022/07/30 02:16:26;;;;;;;6.22;3.28;;;16.30;99.90;;;;;;5041836;28;20049;-71
2022/07/30 02:19:05;;;;;;;5.00;3.70;;;16.30;99.90;;;;;;5033732;28;20056;-71
2022/07/30 02:21:36;;;;;;;5.97;3.70;;;16.30;99.90;;;;;;5045319;28;20041;-70
2022/07/30 02:24:05;;;;;;;9.75;3.40;;;16.20;99.90;;;;;;5042034;28;20059;-71
2022/07/30 02:26:34;;;;;;;5.60;3.78;;;16.20;99.90;;;;;;5038424;28;20179;-71
2022/07/30 02:29:01;;;;;;;5.47;3.95;;;16.20;99.90;;;;;;5038057;28;20090;-71
2022/07/30 02:31:30;;;;;;;5.88;3.55;;;16.20;99.90;;;;;;5039924;28;20112;-71
2022/07/30 02:33:58;;;;;;;6.07;4.10;;;16.10;99.90;;;;;;5049820;28;20045;-71
2022/07/30 02:36:26;;;;;;;7.88;4.55;;;16.10;99.90;;;;;;5036289;28;20092;-71
2022/07/30 02:38:52;;;;;;;5.72;4.38;;;16.10;99.90;;;;;;5037427;28;20211;-71
2022/07/30 02:41:19;;;;;;;;;;;16.10;99.90;;;;;;5042439;28;20029;-71
2022/07/30 02:43:46;;;;;;;9.93;4.50;;;16.10;99.90;;;;;;5042526;28;19939;-71
2022/07/30 02:46:14;;;;;;;7.55;3.58;;;16.10;99.90;;;;;;5044397;28;20045;-71
2022/07/30 02:48:40;;;;;;;8.38;3.88;;;16.10;99.90;;;;;;5034305;28;20115;-71
2022/07/30 02:51:07;;;;;;;5.53;3.47;;;16.10;99.90;;;;;;5042538;28;20033;-71
2022/07/30 02:53:34;;;;;;;7.65;3.90;;;16.00;99.90;;;;;;5035154;28;20033;-71
2022/07/30 02:56:00;;;;;;;7.57;4.20;;;16.00;99.90;;;;;;5043879;28;20033;-71
2022/07/30 02:58:29;;;;;;;6.13;4.10;;;16.00;99.90;;;;;;5037163;28;20377;-71
2022/07/30 03:00:57;;;;;;;6.00;3.53;;;16.00;99.90;;;;;;5041523;28;20047;-71
2022/07/30 03:03:27;;;;;;;5.60;3.83;;;15.90;99.90;;;;;;5038307;28;20041;-71
2022/07/30 03:05:55;;;;;;;9.30;4.00;;;15.90;99.90;;;;;;5025423;28;20085;-71
2022/07/30 03:08:21;;;;;;;5.53;3.53;;;15.90;99.90;;;;;;5039541;28;20048;-71
2022/07/30 03:10:50;;;;;;;4.90;3.58;;;15.80;99.90;;;;;;5038401;28;20124;-71
2022/07/30 03:13:19;;;;;;;4.47;3.05;;;15.80;99.90;;;;;;5044967;28;20091;-71
2022/07/30 03:15:50;;;;;;;4.95;3.35;;;15.80;99.90;;;;;;5046198;28;20446;-71
2022/07/30 03:18:18;;;;;;;5.70;3.58;;;15.80;99.90;;;;;;5038210;28;20033;-71
2022/07/30 03:20:49;;;;;;;4.85;3.05;;;15.80;99.90;;;;;;5044242;28;20068;-71
2022/07/30 03:23:17;;;;;;;6.07;3.58;;;15.80;99.90;;;;;;5046486;28;20091;-71
2022/07/30 03:25:53;;;;;;;6.10;3.38;;;15.80;99.90;;;;;;5036543;28;20045;-71
2022/07/30 03:28:23;;;;;;;5.88;3.95;;;15.80;99.90;;;;;;5039224;28;20053;-72
2022/07/30 03:30:50;;;;;;;5.22;3.58;;;15.80;99.90;;;;;;5026324;28;20503;-71
2022/07/30 03:33:18;;;;;;;5.50;3.92;;;15.80;99.90;;;;;;5039722;28;20072;-71
2022/07/30 03:35:46;;;;;;;6.00;3.53;;;15.80;99.90;;;;;;5032510;28;20482;-71
2022/07/30 03:38:15;;;;;;;5.82;3.55;;;15.80;99.90;;;;;;5038895;28;20123;-71
2022/07/30 03:40:42;;;;;;;6.07;3.90;;;15.80;99.90;;;;;;5050548;28;20059;-71
2022/07/30 03:43:11;;;;;;;6.18;4.45;;;15.70;99.90;;;;;;5053514;28;20131;-71
2022/07/30 03:45:39;;;;;;;6.10;4.15;;;15.70;99.90;;;;;;5027381;28;20037;-71
2022/07/30 03:48:08;;;;;;;6.05;4.18;;;15.70;99.90;;;;;;5037027;28;20037;-71
2022/07/30 03:50:35;;;;;;;5.72;3.80;;;15.70;99.90;;;;;;5041825;28;20507;-71
2022/07/30 03:53:04;;;;;;;7.22;3.80;;;15.60;99.90;;;;;;5040721;28;20180;-71
2022/07/30 03:55:30;;;;;;;5.45;3.58;;;15.70;99.90;;;;;;5039389;28;20103;-71
2022/07/30 03:57:56;;;;;;;6.28;3.92;;;15.70;99.90;;;;;;5037032;28;20095;-71
2022/07/30 04:00:22;;;;;;;7.72;3.83;;;15.70;99.90;;;;;;5035169;28;20505;-71
2022/07/30 04:02:48;;;;;;;5.15;3.28;;;15.70;99.90;;;;;;5047664;28;20033;-71
2022/07/30 04:05:14;;;;;;;5.47;3.33;;;15.60;99.90;;;;;;5035475;28;20059;-71
2022/07/30 04:07:40;;;;;;;4.60;3.20;;;15.70;99.90;;;;;;5040377;28;20067;-71
2022/07/30 04:10:06;;;;;;;6.80;3.33;;;15.60;99.90;;;;;;5042041;28;20048;-71
2022/07/30 04:12:32;;;;;;;5.13;3.15;;;15.60;99.90;;;;;;5034230;28;20096;-71
2022/07/30 04:14:58;;;;;;;6.40;2.88;;;15.70;99.90;;;;;;5047797;28;20495;-71
2022/07/30 04:17:44;;;;;;;4.88;3.20;;;15.70;99.90;;;;;;5047523;28;20124;-72
2022/07/30 04:20:15;;;;;;;5.63;3.20;;;15.70;99.90;;;;;;5039161;28;20122;-72
2022/07/30 04:22:42;;;;;;;5.30;3.60;;;15.60;99.90;;;;;;5047637;28;20048;-71
2022/07/30 04:25:09;;;;;;;5.30;3.47;;;15.60;99.90;;;;;;5043677;28;20052;-71
2022/07/30 04:27:35;;;;;;;5.53;3.80;;;15.60;99.90;;;;;;5040731;28;20124;-72
2022/07/30 04:30:01;;;;;;;;;;;15.60;99.90;;;;;;5046093;28;20068;-72
2022/07/30 04:32:27;;;;;;;4.15;2.97;;;15.60;99.90;;;;;;5052753;28;19923;-72
2022/07/30 04:34:54;;;;;;;4.93;3.25;;;15.60;99.90;;;;;;5045495;28;20454;-71
2022/07/30 04:37:23;;;;;;;7.88;3.15;;;15.60;99.90;;;;;;5048661;28;20045;-71
2022/07/30 04:39:52;;;;;;;6.60;3.38;;;15.60;99.90;;;;;;5044816;28;20045;-72
2022/07/30 04:42:23;;;;;;;6.28;3.30;;;15.60;99.90;;;;;;5036631;28;20493;-72
2022/07/30 04:44:48;;;;;;;5.22;3.33;;;15.60;99.90;;;;;;5036666;28;20568;-72
2022/07/30 04:47:15;;;;;;;5.00;3.38;;;15.60;99.90;;;;;;5044300;28;20065;-72
2022/07/30 04:49:40;;;;;;;;;;;15.60;99.90;;;;;;5034280;28;20676;-72
2022/07/30 04:52:08;;;;;;;5.22;3.28;;;15.60;99.90;;;;;;5046837;28;19916;-72
2022/07/30 04:54:41;;;;;;;5.93;3.25;;;15.60;99.90;;;;;;5041523;28;20069;-72
2022/07/30 04:57:08;;;;;;;4.03;2.90;;;15.60;99.90;;;;;;5063711;28;20066;-72
2022/07/30 04:59:36;;;;;;;5.75;3.63;;;15.60;99.90;;;;;;5039526;28;20112;-72
2022/07/30 05:02:03;;;;;;;7.35;3.30;;;15.60;99.90;;;;;;5031427;28;20120;-72
2022/07/30 05:04:31;;;;;;;8.73;3.85;;;15.60;99.90;;;;;;5044568;28;20041;-71
2022/07/30 05:06:59;;;;;;;5.93;3.58;;;15.60;99.90;;;;;;5040126;28;20045;-72
2022/07/30 05:09:25;;;;;;;5.38;3.55;;;15.60;99.90;;;;;;5036190;28;20052;-72
2022/07/30 05:11:52;;;;;;;5.78;3.47;;;15.60;99.90;;;;;;5049011;28;20052;-72
2022/07/30 05:14:19;;;;;;;6.47;3.30;;;15.60;99.90;;;;;;5025902;28;20366;-72
2022/07/30 05:16:45;;;;;;;6.38;3.92;;;15.60;99.90;;;;;;5043267;28;20048;-72
2022/07/30 05:19:10;;;;;;;8.07;3.92;;;15.60;99.90;;;;;;5042221;28;20029;-72
2022/07/30 05:21:36;;;;;;;8.35;3.95;;;15.60;99.90;;;;;;5049079;28;20059;-72
2022/07/30 05:24:02;;;;;;;7.00;3.80;;;15.60;99.90;;;;;;5042837;28;20048;-72
2022/07/30 05:26:27;;;;;;;7.70;3.70;;;15.60;99.90;;;;;;5037258;28;20670;-72
2022/07/30 05:28:53;;;;;;;7.53;3.95;;;15.60;99.90;;;;;;5043082;28;20404;-72
2022/07/30 05:31:19;;;;;;;6.13;3.85;;;15.70;99.90;;;;;;5028007;28;20044;-72
2022/07/30 05:33:44;;;;;;;9.05;4.15;;;15.70;99.90;;;;;;5042568;28;20057;-72
2022/07/30 05:36:10;;;;;;;6.68;3.95;;;15.80;99.90;;;;;;5040195;28;20068;-72
2022/07/30 05:38:36;;;;;;;6.75;3.80;;;15.80;99.90;;;;;;5042999;28;20044;-72
2022/07/30 05:41:01;;;;;;;8.18;4.03;;;15.80;99.90;;;;;;5048279;28;20441;-72
2022/07/30 05:43:27;;;;;;;6.55;4.20;;;15.90;99.90;;;;;;5042534;28;20041;-73
2022/07/30 05:45:53;;;;;;;7.88;3.95;;;15.90;99.90;;;;;;5037235;28;20087;-72
2022/07/30 05:48:19;;;;;;;10.07;5.13;;;16.00;99.90;;;;;;5041057;28;20030;-72
2022/07/30 05:50:44;;;;;;;7.63;3.85;;;16.00;99.90;;;;;;5041208;28;20342;-72
2022/07/30 05:53:10;;;;;;;7.72;4.85;;;16.10;99.90;;;;;;5044020;28;20029;-72
2022/07/30 05:55:35;;;;;;;7.35;4.38;;;16.10;99.90;;;;;;5048027;28;20246;-73
2022/07/30 05:58:01;;;;;;;7.25;4.00;;;16.20;99.90;;;;;;5037414;28;20041;-72
2022/07/30 06:00:27;;;;;;;7.05;3.58;;;16.30;99.90;;;;;;5039216;28;20045;-72
2022/07/30 06:02:52;;;;;;;7.40;3.72;;;16.30;99.90;;;;;;5033549;28;20494;-72
2022/07/30 06:05:18;;;;;;;5.80;3.63;;;16.40;99.90;;;;;;5044258;28;20120;-72
2022/07/30 06:07:44;;;;;;;6.32;3.78;;;16.50;99.90;;;;;;5044622;28;20039;-72
2022/07/30 06:10:10;;;;;;;7.30;3.45;;;16.60;99.90;;;;;;5044305;28;20091;-72
2022/07/30 06:12:35;;;;;;;5.22;3.88;;;16.70;99.90;;;;;;5034701;28;20482;-72
2022/07/30 06:15:01;;;;;;;5.05;3.80;;;16.80;99.90;;;;;;5040370;28;20120;-72
2022/07/30 06:17:26;;;;;;;6.07;3.42;;;16.90;99.90;;;;;;5033385;28;20127;-72
2022/07/30 06:19:52;;;;;;;8.40;3.55;;;17.00;99.90;;;;;;5036348;28;20056;-73
2022/07/30 06:22:18;;;;;;;8.68;3.78;;;17.10;99.90;;;;;;5045565;28;20059;-72
2022/07/30 06:24:44;;;;;;;;;;;17.20;99.90;;;;;;5045539;28;20049;-72
2022/07/30 06:27:10;;;;;;;9.70;3.83;;;17.30;99.90;;;;;;5044846;28;19917;-72
2022/07/30 06:29:36;;;;;;;7.78;4.03;;;17.30;99.90;;;;;;5044826;28;20377;-72
2022/07/30 06:32:02;;;;;;;9.45;3.72;;;17.40;99.90;;;;;;5046392;28;20349;-72
2022/07/30 06:34:27;;;;;;;5.32;3.42;;;17.50;99.90;;;;;;5041506;28;20120;-72
2022/07/30 06:36:53;;;;;;;7.40;4.20;;;17.60;99.90;;;;;;5037529;28;20498;-72
2022/07/30 06:39:19;;;;;;;11.32;3.75;;;17.60;99.90;;;;;;5024375;28;20114;-72
2022/07/30 06:41:44;;;;;;;6.82;3.58;;;17.70;99.90;;;;;;5043871;28;20366;-72
2022/07/30 06:44:10;;;;;;;6.75;3.08;;;17.70;99.90;;;;;;5048120;28;20044;-72
2022/07/30 06:46:36;;;;;;;9.38;3.10;;;17.70;99.90;;;;;;5039730;28;20060;-72
2022/07/30 06:49:02;;;;;;;8.95;4.22;;;17.80;99.90;;;;;;5038779;28;20055;-72
2022/07/30 06:51:27;;;;;;;;;;;17.90;99.90;;;;;;5038244;28;20082;-72
2022/07/30 06:53:53;;;;;;;6.68;3.42;;;17.90;99.90;;;;;;5038366;28;19920;-72
2022/07/30 06:56:19;;;;;;;4.65;3.00;;;18.00;99.90;;;;;;5056674;28;20126;-72
2022/07/30 06:58:44;;;;;;;5.53;3.40;;;18.10;99.90;;;;;;5037495;28;20092;-72
2022/07/30 07:01:10;;;;;;;9.77;3.92;;;18.10;99.90;;;;;;5037565;28;20108;-72
2022/07/30 07:03:35;;;;;;;6.05;3.35;;;18.20;99.90;;;;;;5041448;28;20049;-72
2022/07/30 07:06:02;;;;;;;5.95;3.53;;;18.20;99.90;;;;;;5038810;28;20517;-72
2022/07/30 07:08:28;;;;;;;6.50;4.05;;;18.30;99.90;;;;;;5038014;28;20592;-72
2022/07/30 07:10:54;;;;;;;11.05;3.92;;;18.40;99.90;;;;;;5042473;28;20280;-72
2022/07/30 07:13:19;;;;;;;7.03;3.78;;;18.40;99.90;;;;;;5045109;28;20056;-72
2022/07/30 07:15:45;;;;;;;7.70;4.05;;;18.40;99.90;;;;;;5040746;28;20501;-72
2022/07/30 07:18:11;;;;;;;5.38;3.58;;;18.40;99.90;;;;;;5041483;28;20291;-72
2022/07/30 07:20:37;;;;;;;6.97;3.60;;;18.50;99.90;;;;;;5034210;28;20060;-72
2022/07/30 07:23:04;;;;;;;7.47;3.20;;;18.50;99.90;;;;;;5039449;28;20032;-72
2022/07/30 07:25:29;;;;;;;6.53;3.55;;;18.60;99.90;;;;;;5036184;28;20430;-72
2022/07/30 07:27:55;;;;;;;6.45;3.38;;;18.60;99.90;;;;;;5040870;28;20118;-72
2022/07/30 07:30:20;;;;;;;5.47;2.95;;;18.60;99.90;;;;;;5039080;28;20152;-72
2022/07/30 07:32:46;;;;;;;5.88;3.40;;;18.70;99.90;;;;;;5045816;28;20441;-71
2022/07/30 07:35:12;;;;;;;7.03;3.25;;;18.70;99.90;;;;;;5034340;28;20029;-71
2022/07/30 07:37:38;;;;;;;7.30;2.75;;;18.70;99.90;;;;;;5031166;28;20182;-76
2022/07/30 07:40:05;;;;;;;8.23;3.35;;;18.70;99.90;;;;;;5035531;28;20520;-71
2022/07/30 07:42:30;;;;;;;6.18;3.20;;;18.70;99.90;;;;;;5038492;28;20458;-71
2022/07/30 07:44:56;;;;;;;5.50;3.38;;;18.80;99.90;;;;;;5031389;28;20055;-71
2022/07/30 07:47:21;;;;;;;8.13;3.22;;;18.90;99.90;;;;;;5036947;28;20268;-71
2022/07/30 07:49:47;;;;;;;6.40;3.55;;;19.00;99.90;;;;;;5042175;28;20115;-71
2022/07/30 07:52:13;;;;;;;4.57;3.15;;;19.00;99.90;;;;;;5044740;28;20055;-71
2022/07/30 07:54:38;;;;;;;7.55;3.67;;;19.00;99.90;;;;;;5042307;28;20037;-71
2022/07/30 07:57:06;;;;;;;5.95;3.25;;;19.00;99.90;;;;;;5034064;28;20042;-70
2022/07/30 07:59:33;;;;;;;4.53;3.10;;;19.00;99.90;;;;;;5040361;28;20456;-70
2022/07/30 08:01:59;;;;;;;6.88;2.65;;;19.00;99.90;;;;;;5041013;28;20128;-70
2022/07/30 08:04:24;;;;;;;8.05;2.47;;;19.00;99.90;;;;;;5034514;28;20153;-70
2022/07/30 08:06:50;;;;;;;3.90;2.30;;;19.10;99.90;;;;;;5038708;28;20033;-70
2022/07/30 08:09:16;;;;;;;6.90;2.88;;;19.10;99.90;;;;;;5038543;28;20478;-71
2022/07/30 08:11:41;;;;;;;6.18;2.40;;;19.20;99.90;;;;;;5060276;28;20095;-71
2022/07/30 08:14:07;;;;;;;4.90;2.17;;;19.20;99.90;;;;;;5034512;28;20504;-70
2022/07/30 08:16:33;;;;;;;6.40;2.13;;;19.20;99.90;;;;;;5038052;28;20476;-70
2022/07/30 08:18:58;;;;;;;5.50;2.60;;;19.30;99.90;;;;;;5034211;28;20041;-71
2022/07/30 08:32:44;;;;;;;2.83;1.73;;;19.60;99.90;;;;;;5066249;22;20062;-73
2022/07/30 08:35:10;;;;;;;3.38;1.52;;;19.60;99.90;;;;;;5066165;28;20485;-73
2022/07/30 08:37:36;;;;;;;7.60;2.13;;;19.70;99.90;;;;;;5055864;28;20051;-73
2022/07/30 08:40:04;;;;;;;4.82;1.60;;;19.70;99.90;;;;;;5054210;28;20037;-73
2022/07/30 08:42:32;;;;;;;4.95;2.22;;;19.70;99.90;;;;;;5035098;28;20049;-73
2022/07/30 08:44:58;;;;;;;5.78;2.45;;;19.80;99.90;;;;;;5040426;28;20481;-73
2022/07/30 08:47:30;;;;;;;2.90;1.90;;;19.90;99.90;;;;;;5039236;28;20050;-73
2022/07/30 08:50:00;;;;;;;4.72;2.22;;;19.90;99.90;;;;;;5031023;28;20045;-73
2022/07/30 08:52:26;;;;;;;3.72;1.95;;;20.00;99.90;;;;;;5027987;28;20040;-74
2022/07/30 08:54:53;;;;;;;3.13;1.63;;;20.00;99.90;;;;;;5037278;28;20040;-73
2022/07/30 08:57:18;;;;;;;;;;;20.10;99.90;;;;;;5043142;28;20043;-73
2022/07/30 08:59:44;;;;;;;5.13;1.48;;;20.00;99.90;;;;;;5038308;28;19921;-74
2022/07/30 09:02:10;;;;;;;7.05;1.83;;;20.00;99.90;;;;;;5043200;28;20504;-73
2022/07/30 09:04:36;;;;;;;3.85;2.15;;;20.10;99.90;;;;;;5041320;28;20134;-73
2022/07/30 09:07:01;;;;;;;3.65;1.60;;;20.10;99.90;;;;;;5039540;28;20041;-73
2022/07/30 09:09:27;;;;;;;2.83;1.88;;;20.20;99.90;;;;;;5029259;28;20354;-73
2022/07/30 09:11:52;;;;;;;5.75;2.08;;;20.30;99.90;;;;;;5041175;28;20042;-74
2022/07/30 09:14:18;;;;;;;4.22;2.13;;;20.30;99.90;;;;;;5026890;28;20041;-73
2022/07/30 09:16:45;;;;;;;3.83;1.88;;;20.30;99.90;;;;;;5034046;28;20514;-73
2022/07/30 09:19:19;;;;;;;3.95;1.60;;;20.30;99.90;;;;;;5035600;28;20123;-73
2022/07/30 09:21:59;;;;;;;4.22;2.17;;;20.40;99.90;;;;;;5042680;28;20474;-74
2022/07/30 09:24:25;;;;;;;3.65;1.83;;;20.40;99.90;;;;;;5025713;28;20498;-73
2022/07/30 09:27:00;;;;;;;2.75;1.60;;;20.50;99.90;;;;;;5048702;28;20041;-74
2022/07/30 09:29:30;;;;;;;4.90;2.42;;;20.60;99.90;;;;;;5039692;28;20502;-73
2022/07/30 09:32:06;;;;;;;6.45;1.88;;;20.70;99.90;;;;;;5041348;28;20240;-74
2022/07/30 09:34:38;;;;;;;4.88;1.80;;;20.70;99.90;;;;;;5045755;28;20410;-74
2022/07/30 09:37:09;;;;;;;2.60;1.45;;;20.70;99.90;;;;;;5052143;28;20029;-73
2022/07/30 09:39:37;;;;;;;3.47;2.05;;;20.60;99.90;;;;;;5039263;28;20355;-74
2022/07/30 09:42:33;;;;;;;5.18;1.70;;;20.70;99.90;;;;;;5042986;28;20034;-73
2022/07/30 09:45:06;;;;;;;1.92;1.30;;;20.70;99.90;;;;;;5020718;28;20095;-74
2022/07/30 09:47:33;;;;;;;3.00;1.52;;;20.80;99.90;;;;;;5042087;28;20048;-74
2022/07/30 09:50:06;;;;;;;5.28;1.90;;;20.90;99.90;;;;;;5026622;28;20047;-75
2022/07/30 09:52:32;;;;;;;5.68;2.08;;;20.90;99.90;;;;;;5032782;28;20052;-74
2022/07/30 09:54:58;;;;;;;2.60;1.45;;;21.00;99.90;;;;;;5029226;28;20055;-73
2022/07/30 09:57:24;;;;;;;4.97;1.58;;;21.10;99.90;;;;;;5026888;28;20103;-74
2022/07/30 09:59:50;;;;;;;2.83;1.40;;;21.20;99.90;;;;;;5026038;28;20139;-74
2022/07/30 10:02:15;;;;;;;2.22;1.55;;;21.30;99.90;;;;;;5038028;28;20048;-74
2022/07/30 10:04:42;;;;;;;2.65;1.30;;;21.40;99.90;;;;;;5037584;28;20134;-74
2022/07/30 10:07:17;;;;;;;4.95;1.70;;;21.50;99.90;;;;;;5033639;28;20124;-74
2022/07/30 10:09:46;;;;;;;4.83;2.10;;;21.50;99.90;;;;;;5029499;28;20048;-74
2022/07/30 10:12:13;;;;;;;3.83;1.55;;;21.60;99.90;;;;;;5030213;28;20290;-74
2022/07/30 10:14:43;;;;;;;4.63;1.80;;;21.60;99.90;;;;;;5039357;28;20036;-74
2022/07/30 10:17:11;;;;;;;3.55;1.38;;;21.60;99.90;;;;;;5038164;28;20040;-74
2022/07/30 10:19:38;;;;;;;2.90;1.75;;;21.60;99.90;;;;;;5028411;28;20063;-74
2022/07/30 10:22:04;;;;;;;5.32;1.90;;;21.60;99.90;;;;;;5026051;28;20433;-74
2022/07/30 10:24:33;;;;;;;5.03;1.90;;;21.70;99.90;;;;;;5036805;28;20069;-74
2022/07/30 10:26:59;;;;;;;3.42;1.70;;;21.80;99.90;;;;;;5020322;28;20068;-74
2022/07/30 10:29:25;;;;;;;;;;;21.90;99.90;;;;;;5022964;28;20059;-73
2022/07/30 10:31:51;;;;;;;3.53;1.50;;;21.80;99.90;;;;;;5032156;28;19946;-74
2022/07/30 10:34:17;;;;;;;;;;;21.70;99.90;;;;;;5028810;28;20040;-74
2022/07/30 10:36:50;;;;;;;4.85;2.17;;;21.50;99.90;;;;;;5028196;28;19917;-74
2022/07/30 10:39:46;;;;;;;4.35;2.17;;;21.50;99.90;;;;;;5016149;28;20502;-74
2022/07/30 10:42:20;;;;;;;3.03;1.60;;;21.40;99.90;;;;;;5013128;28;20063;-74
2022/07/30 10:45:02;;;;;;;4.38;1.63;;;21.50;99.90;;;;;;5021835;28;20044;-73
2022/07/30 10:47:29;;;;;;;2.90;1.63;;;21.50;99.90;;;;;;5036714;28;20127;-74
2022/07/30 10:50:13;;;;;;;3.83;1.80;;;21.60;99.90;;;;;;5043351;28;20041;-73
2022/07/30 10:53:00;;;;;;;3.58;1.85;;;21.80;99.90;;;;;;5042277;28;20178;-73
2022/07/30 10:55:30;;;;;;;;;;;22.00;99.90;;;;;;5043110;28;20041;-72
2022/07/30 10:58:00;;;;;;;4.00;1.67;;;22.10;99.90;;;;;;5045155;28;19920;-73
2022/07/30 11:00:30;;;;;;;3.53;1.42;;;22.30;99.90;;;;;;5045131;28;20093;-74
2022/07/30 11:03:15;;;;;;;5.85;1.45;;;22.30;99.90;;;;;;5026646;28;20040;-74
2022/07/30 11:05:42;;;;;;;2.40;1.30;;;22.30;99.90;;;;;;5025863;28;20124;-73
2022/07/30 11:08:27;;;;;;;2.53;1.75;;;22.40;99.90;;;;;;5035054;28;20045;-73
2022/07/30 11:10:53;;;;;;;3.42;1.75;;;22.50;99.90;;;;;;5040206;28;20221;-74
2022/07/30 11:13:39;;;;;;;;;;;22.60;99.90;;;;;;5027521;28;20049;-73
2022/07/30 11:16:04;;;;;;;3.10;1.55;;;22.40;99.90;;;;;;5017063;28;19948;-74
2022/07/30 11:18:30;;;;;;;;;;;22.40;99.90;;;;;;5007810;28;20132;-73
2022/07/30 11:21:16;;;;;;;3.65;1.20;;;22.40;99.90;;;;;;5023538;28;20290;-73
2022/07/30 11:23:44;;;;;;;2.75;1.58;;;22.50;99.90;;;;;;5026923;28;20095;-74
2022/07/30 11:26:30;;;;;;;3.63;1.35;;;22.50;99.90;;;;;;5030006;28;20036;-74
2022/07/30 11:28:55;;;;;;;2.35;1.30;;;22.60;99.90;;;;;;5029676;28;20116;-74
2022/07/30 11:31:31;;;;;;;;;;;22.50;99.90;;;;;;5024788;28;20052;-74
2022/07/30 11:34:17;;;;;;;3.70;1.42;;;22.40;99.90;;;;;;5027105;28;19943;-74
2022/07/30 11:37:08;;;;;;;2.17;1.45;;;22.40;99.90;;;;;;5015593;28;20136;-74
2022/07/30 11:39:52;;;;;;;3.40;1.38;;;22.50;99.90;;;;;;5029640;28;20413;-74
2022/07/30 11:42:35;;;;;;;3.28;1.48;;;22.60;99.90;;;;;;5025998;28;20040;-74
2022/07/30 11:45:16;;;;;;;3.35;1.30;;;22.60;99.90;;;;;;5026250;28;20339;-74
2022/07/30 11:47:46;;;;;;;2.35;1.20;;;22.60;99.90;;;;;;5030547;28;20064;-75
2022/07/30 11:50:30;;;;;;;5.07;1.70;;;22.70;99.90;;;;;;5031549;28;20037;-74
2022/07/30 11:52:58;;;;;;;1.95;1.15;;;22.80;99.90;;;;;;5018982;28;20037;-75
2022/07/30 11:55:29;;;;;;;3.60;1.42;;;22.90;99.90;;;;;;5039747;28;20053;-75
2022/07/30 11:57:55;;;;;;;4.70;2.10;;;22.90;99.90;;;;;;5043456;28;20041;-75
2022/07/30 12:00:23;;;;;;;2.58;1.52;;;22.60;99.90;;;;;;5030069;28;20100;-73
2022/07/30 12:02:49;;;;;;;2.47;1.52;;;22.50;99.90;;;;;;5030976;28;20108;-73
2022/07/30 12:05:21;;;;;;;;;;;22.60;99.90;;;;;;5032972;28;20463;-75
2022/07/30 12:07:47;;;;;;;6.05;1.25;;;22.70;99.90;;;;;;5037150;28;20212;-73
2022/07/30 12:10:12;;;;;;;;;;;22.80;99.90;;;;;;5018035;28;20079;-74
2022/07/30 12:12:38;;;;;;;1.92;0.90;;;22.70;99.90;;;;;;5034396;28;19917;-73
2022/07/30 12:15:04;;;;;;;;;;;22.70;99.90;;;;;;5023158;28;20615;-73
2022/07/30 12:17:43;;;;;;;3.30;1.17;;;22.60;99.90;;;;;;5040149;28;19921;-74
2022/07/30 12:20:16;;;;;;;4.18;1.20;;;22.60;99.90;;;;;;5025581;28;20033;-79
2022/07/30 12:22:43;;;;;;;2.25;1.00;;;22.60;99.90;;;;;;5031142;28;20549;-76
2022/07/30 12:25:11;;;;;;;3.45;0.90;;;22.80;99.90;;;;;;5041189;28;20389;-75
2022/07/30 12:27:38;;;;;;;2.67;0.88;;;22.80;99.90;;;;;;5033734;28;20498;-78
2022/07/30 12:30:05;;;;;;;3.20;1.00;;;22.90;99.90;;;;;;5037158;28;20078;-78
2022/07/30 12:32:31;;;;;;;2.28;1.10;;;22.90;99.90;;;;;;5037187;28;20041;-79
2022/07/30 12:34:56;;;;;;;;;;;22.90;99.90;;;;;;5039348;28;20095;-78
2022/07/30 12:37:22;;;;;;;3.00;0.70;;;23.00;99.90;;;;;;5036805;28;19916;-79
2022/07/30 12:39:49;;;;;;;2.05;1.13;;;23.20;99.90;;;;;;5032112;28;20041;-75
2022/07/30 12:42:18;;;;;;;2.78;0.80;;;23.30;99.90;;;;;;5038959;28;20060;-76
2022/07/30 12:44:44;;;;;;;1.70;0.93;;;23.40;99.90;;;;;;5031343;28;20053;-78
2022/07/30 12:47:19;;;;;;;;;;;23.50;99.90;;;;;;5030214;28;20521;-76
2022/07/30 12:49:45;;;;;;;2.10;0.98;;;23.60;99.80;;;;;;5036491;28;20292;-77
2022/07/30 12:52:20;;;;;;;2.17;0.70;;;23.60;99.90;;;;;;5040546;28;20032;-75
2022/07/30 12:54:56;;;;;;;1.70;0.90;;;23.40;94.20;;;;;;5021310;28;20042;-76
2022/07/30 12:57:22;;;;;;;1.58;0.90;;;23.40;94.90;;;;;;5043201;28;20207;-74
2022/07/30 12:59:59;;;;;;;;;;;23.30;97.90;;;;;;5051789;28;20116;-75
2022/07/30 13:02:32;;;;;;;2.58;0.80;;;23.30;99.90;;;;;;5036034;28;19917;-77
2022/07/30 13:04:57;;;;;;;2.13;0.70;;;23.40;99.30;;;;;;5032531;28;20046;-75
2022/07/30 13:07:23;;;;;;;;;;;23.50;99.40;;;;;;5040112;28;20183;-77
2022/07/30 13:10:05;;;;;;;1.48;0.75;;;23.50;97.90;;;;;;5037301;28;20470;-75
2022/07/30 13:12:31;;;;;;;2.95;0.80;;;23.50;97.70;;;;;;5028730;28;20053;-75
2022/07/30 13:14:57;;;;;;;;;;;23.60;98.70;;;;;;5036277;28;20028;-74